Time;durP1;ratioP1;P1;durP2;ratioP2;P2;SDS_P1;SDS_P2;PMS_P1;PMS_P2;Temp;Humidity;BMP_temperature;BMP_pressure;BME280_temperature;BME280_humidity;BME280_pressure;Samples;Min_cycle;Max_cycle;Signal;HPM_P1;HPM_P2
2024/02/16 00:04:55;;;;;;;13.00;6.63;;;;;;;2.90;100.00;101255.16;31248521;28;20068;-83
2024/02/16 00:19:57;;;;;;;13.40;6.60;;;;;;;2.46;100.00;101254.19;31273547;28;20483;-84
2024/02/16 00:35:00;;;;;;;9.03;5.93;;;;;;;2.43;100.00;101249.50;31276100;28;20061;-83
2024/02/16 00:50:23;;;;;;;8.60;5.40;;;;;;;2.55;100.00;101254.88;31268454;28;20049;-85
2024/02/16 01:05:26;;;;;;;12.93;6.90;;;;;;;2.27;100.00;101252.84;31269856;28;20080;-83
2024/02/16 01:20:30;;;;;;;9.63;5.37;;;;;;;2.09;100.00;101240.00;31269706;28;20129;-86
2024/02/16 01:35:33;;;;;;;13.93;7.30;;;;;;;2.32;100.00;101265.25;31260167;28;20533;-85
2024/02/16 01:50:35;;;;;;;11.47;6.13;;;;;;;2.23;100.00;101284.09;31159934;28;20051;-85
2024/02/16 02:05:46;;;;;;;13.87;6.33;;;;;;;2.51;100.00;101283.44;31316549;28;20047;-81
2024/02/16 02:20:48;;;;;;;14.23;6.40;;;;;;;2.20;100.00;101300.03;31234235;28;20049;-82
2024/02/16 02:35:51;;;;;;;9.27;5.13;;;;;;;2.17;100.00;101312.22;31288943;28;20049;-87
2024/02/16 02:50:53;;;;;;;15.40;5.20;;;;;;;1.98;100.00;101320.75;31225164;28;20050;-86
2024/02/16 03:05:56;;;;;;;14.23;5.03;;;;;;;1.84;100.00;101343.59;31246973;28;20136;-85
2024/02/16 03:20:58;;;;;;;9.87;4.93;;;;;;;1.55;100.00;101345.25;31317844;28;20419;-86
2024/02/16 03:36:01;;;;;;;12.00;6.23;;;;;;;1.74;100.00;101346.66;31276145;28;20494;-85
2024/02/16 03:51:04;;;;;;;12.03;6.73;;;;;;;1.23;100.00;101348.59;31304001;28;20080;-84
2024/02/16 04:06:08;;;;;;;9.47;5.53;;;;;;;1.56;100.00;101346.81;31305618;28;20056;-89
2024/02/16 04:21:10;;;;;;;12.47;6.50;;;;;;;1.52;100.00;101361.94;31219214;28;20054;-87
2024/02/16 04:36:15;;;;;;;8.43;4.90;;;;;;;1.42;100.00;101367.66;31324720;28;20057;-88
2024/02/16 04:51:17;;;;;;;13.50;7.07;;;;;;;1.18;100.00;101378.25;31315721;28;20479;-82
2024/02/16 05:06:20;;;;;;;12.53;7.53;;;;;;;1.44;100.00;101392.22;31311503;28;20049;-83
2024/02/16 05:21:23;;;;;;;20.80;6.67;;;;;;;1.40;100.00;101410.06;31277160;28;20056;-88
2024/02/16 05:52:35;;;;;;;7.67;5.47;;;;;;;1.34;100.00;101424.72;31246299;28;20056;-84
2024/02/16 06:07:40;;;;;;;7.70;5.23;;;;;;;1.09;100.00;101428.31;31259778;28;20076;-83
2024/02/16 06:22:44;;;;;;;;;;;;;;;1.51;100.00;101446.03;31260373;28;20064;-83
2024/02/16 06:37:46;;;;;;;14.60;6.90;;;;;;;1.60;100.00;101433.38;31278151;28;20441;-88
2024/02/16 06:53:06;;;;;;;13.83;6.17;;;;;;;1.73;100.00;101452.97;31287587;28;20049;-89
2024/02/16 07:08:08;;;;;;;10.13;6.93;;;;;;;1.39;100.00;101469.25;31364476;28;20503;-83
2024/02/16 07:23:15;;;;;;;15.03;7.43;;;;;;;1.56;100.00;101471.81;31273115;28;20054;-82
2024/02/16 07:38:17;;;;;;;11.67;6.60;;;;;;;1.57;100.00;101468.03;31281287;28;20110;-83
2024/02/16 07:53:28;;;;;;;9.73;5.67;;;;;;;1.68;100.00;101472.66;31280299;28;20054;-85
2024/02/16 08:08:42;;;;;;;7.67;3.93;;;;;;;1.40;100.00;101476.94;31278767;28;20053;-88
2024/02/16 08:40:14;;;;;;;10.57;4.23;;;;;;;1.58;100.00;101510.53;31299660;28;20111;-84
2024/02/16 08:55:17;;;;;;;8.07;4.67;;;;;;;1.65;100.00;101502.75;31319816;28;20059;-90
2024/02/16 09:10:24;;;;;;;8.00;4.43;;;;;;;1.89;100.00;101501.38;31308046;28;20069;-89
2024/02/16 09:25:27;;;;;;;7.47;5.10;;;;;;;2.38;100.00;101508.56;31320006;28;20042;-88
2024/02/16 09:40:30;;;;;;;6.77;4.43;;;;;;;2.27;100.00;101499.38;31256844;28;20413;-89
2024/02/16 09:55:33;;;;;;;14.57;6.27;;;;;;;2.44;100.00;101494.94;31210410;28;20479;-82
2024/02/16 10:10:37;;;;;;;11.43;5.53;;;;;;;2.48;100.00;101490.50;31245015;28;20081;-83
2024/02/16 10:25:49;;;;;;;11.03;5.83;;;;;;;2.87;100.00;101476.53;31231462;28;20053;-83
2024/02/16 10:40:59;;;;;;;9.60;5.37;;;;;;;3.06;100.00;101471.44;31219251;28;20085;-90
2024/02/16 10:56:07;;;;;;;11.43;5.77;;;;;;;3.30;100.00;101462.63;31302257;28;20050;-89
2024/02/16 11:26:45;;;;;;;10.97;5.27;;;;;;;3.73;100.00;101451.28;31280213;28;20064;-83
2024/02/16 11:41:47;;;;;;;16.33;6.70;;;;;;;3.99;100.00;101447.41;30983963;28;20062;-85
2024/02/16 11:56:52;;;;;;;16.90;7.40;;;;;;;3.78;100.00;101436.81;30954107;28;20416;-84
2024/02/16 12:11:58;;;;;;;14.77;7.13;;;;;;;4.89;100.00;101425.22;31001105;28;20050;-82
2024/02/16 12:27:24;;;;;;;20.93;7.30;;;;;;;4.42;100.00;101434.00;30859901;28;20051;-89
2024/02/16 12:42:50;;;;;;;12.00;6.70;;;;;;;4.39;100.00;101431.22;31157000;28;20108;-88
2024/02/16 12:57:53;;;;;;;15.37;8.07;;;;;;;4.29;100.00;101429.81;31212552;28;20521;-85
2024/02/16 13:12:55;;;;;;;18.13;7.33;;;;;;;4.46;100.00;101434.13;31215022;28;20045;-91
2024/02/16 13:27:59;;;;;;;17.23;8.80;;;;;;;4.38;100.00;101437.72;31236878;28;20049;-87
2024/02/16 13:58:59;;;;;;;14.60;7.23;;;;;;;3.93;100.00;101443.38;31316448;28;20487;-87
2024/02/16 14:14:02;;;;;;;17.40;8.63;;;;;;;4.19;100.00;101441.06;31237439;28;20051;-88
2024/02/16 14:29:07;;;;;;;42.40;8.83;;;;;;;4.36;100.00;101443.44;31253865;28;20058;-83
2024/02/16 14:44:13;;;;;;;16.40;7.47;;;;;;;4.01;100.00;101437.88;31201512;28;20045;-85
2024/02/16 14:59:19;;;;;;;16.85;7.97;;;;;;;4.25;100.00;101445.06;31247957;28;20054;-85
2024/02/16 15:14:34;;;;;;;14.60;7.67;;;;;;;4.50;100.00;101455.69;31240973;28;20049;-84
2024/02/16 15:29:40;;;;;;;15.93;7.53;;;;;;;4.24;100.00;101475.00;31260275;28;20056;-86
2024/02/16 15:44:52;;;;;;;;;;;;;;;;;;;;;
2024/02/16 16:00:09;;;;;;;15.03;8.93;;;;;;;4.26;100.00;101505.75;31376511;28;20588;-83
2024/02/16 16:15:12;;;;;;;17.90;8.90;;;;;;;4.18;100.00;101509.38;31208820;28;20057;-90
2024/02/16 16:30:17;;;;;;;26.07;10.50;;;;;;;4.06;100.00;101520.16;31218776;28;20050;-88
2024/02/16 16:45:21;;;;;;;;;;;;;;;4.25;100.00;101524.94;31227069;28;20049;-89
2024/02/16 17:00:24;;;;;;;27.73;7.77;;;;;;;3.73;100.00;101526.47;31176216;28;19921;-82
2024/02/16 17:15:30;;;;;;;16.93;7.73;;;;;;;3.42;100.00;101531.63;31241288;28;20054;-84
2024/02/16 17:30:34;;;;;;;12.30;6.43;;;;;;;3.29;100.00;101535.44;31272813;28;20057;-90
2024/02/16 17:45:42;;;;;;;16.00;7.17;;;;;;;3.19;100.00;101538.53;31278747;28;20057;-89
2024/02/16 18:00:47;;;;;;;16.17;6.87;;;;;;;3.15;100.00;101551.03;31303422;28;20068;-89
2024/02/16 18:15:50;;;;;;;9.20;6.37;;;;;;;2.89;100.00;101554.78;31306617;28;20132;-89
2024/02/16 18:30:55;;;;;;;15.13;6.63;;;;;;;2.73;100.00;101543.91;31275705;28;20061;-89
2024/02/16 18:46:00;;;;;;;15.17;6.67;;;;;;;2.59;100.00;101559.50;31298727;28;20152;-87
2024/02/16 19:01:02;;;;;;;17.87;9.13;;;;;;;2.61;100.00;101559.13;31291114;28;20132;-83
2024/02/16 19:16:06;;;;;;;19.90;9.73;;;;;;;2.83;100.00;101564.16;31281890;28;20041;-89
2024/02/16 19:31:08;;;;;;;25.37;10.83;;;;;;;2.55;100.00;101557.78;31259482;28;20125;-85
2024/02/16 19:46:16;;;;;;;12.63;6.50;;;;;;;2.63;100.00;101548.88;31275232;28;20076;-83
2024/02/16 20:01:21;;;;;;;11.73;6.03;;;;;;;2.44;100.00;101551.25;31277444;28;20044;-86
2024/02/16 20:16:42;;;;;;;;;;;;;;;;;;;;;
2024/02/16 20:31:50;;;;;;;11.83;6.60;;;;;;;2.27;100.00;101552.16;31303236;28;20697;-83
2024/02/16 20:46:58;;;;;;;12.30;7.60;;;;;;;2.28;100.00;101562.56;31290212;28;20057;-93
2024/02/16 21:02:01;;;;;;;9.37;5.37;;;;;;;2.18;100.00;101559.47;31273747;28;20107;-92
2024/02/16 21:17:07;;;;;;;7.37;3.97;;;;;;;1.93;100.00;101563.88;31319846;28;20049;-93
2024/02/16 21:32:10;;;;;;;7.93;4.83;;;;;;;1.73;100.00;101578.00;31288423;28;20045;-90
2024/02/16 21:47:13;;;;;;;7.20;4.20;;;;;;;1.71;100.00;101583.69;31285438;28;20179;-84
2024/02/16 22:02:15;;;;;;;7.80;4.00;;;;;;;1.47;100.00;101589.59;31265279;28;20045;-87
2024/02/16 22:17:20;;;;;;;3.97;3.17;;;;;;;1.29;100.00;101593.44;31272897;28;20405;-87
2024/02/16 22:32:25;;;;;;;5.80;3.43;;;;;;;1.54;100.00;101584.56;31271649;28;20067;-89
2024/02/16 22:47:27;;;;;;;4.67;3.77;;;;;;;1.11;100.00;101575.88;31249469;28;20046;-89
2024/02/16 23:02:30;;;;;;;4.67;3.27;;;;;;;1.26;100.00;101578.81;31302222;28;20064;-85
2024/02/16 23:17:32;;;;;;;7.33;3.97;;;;;;;1.19;100.00;101556.31;31273457;28;20060;-90
2024/02/16 23:32:35;;;;;;;7.23;3.10;;;;;;;1.21;100.00;101559.47;31246518;28;20430;-88
2024/02/16 23:47:37;;;;;;;6.53;3.70;;;;;;;1.40;100.00;101567.94;31291771;28;20041;-90
